Time;durP1;ratioP1;P1;durP2;ratioP2;P2;SDS_P1;SDS_P2;PMS_P1;PMS_P2;Temp;Humidity;BMP_temperature;BMP_pressure;BME280_temperature;BME280_humidity;BME280_pressure;Samples;Min_cycle;Max_cycle;Signal;HPM_P1;HPM_P2
2021/08/11 00:02:14;;;;;;;;;;;;;;;16.08;80.84;100077.20;126927;1090;103004;-80
2021/08/11 00:05:02;;;;;;;;;;;;;;;16.06;80.94;100079.09;126742;1088;102943;-80
2021/08/11 00:07:50;;;;;;;;;;;;;;;16.05;81.32;100073.91;126790;1090;103130;-80
2021/08/11 00:10:37;;;;;;;;;;;;;;;15.99;81.12;100070.70;126840;1088;102888;-80
2021/08/11 00:13:26;;;;;;;;;;;;;;;15.98;81.35;100074.28;126879;1089;102856;-80
2021/08/11 00:16:13;;;;;;;;;;;;;;;15.99;81.82;100078.59;126809;1087;102152;-80
2021/08/11 00:19:00;;;;;;;;;;;;;;;16.03;81.83;100074.00;126902;1089;102874;-80
2021/08/11 00:21:48;;;;;;;;;;;;;;;16.03;81.92;100068.74;126762;1089;103527;-80
2021/08/11 00:24:38;;;;;;;;;;;;;;;16.09;82.12;100078.91;126865;1087;103505;-80
2021/08/11 00:27:25;;;;;;;;;;;;;;;16.10;81.89;100071.86;126778;1089;105185;-80
2021/08/11 00:30:13;;;;;;;;;;;;;;;16.15;81.84;100077.69;126948;1087;102871;-80
2021/08/11 00:33:01;;;;;;;;;;;;;;;16.23;81.72;100071.06;126788;1089;102882;-80
2021/08/11 00:35:49;;;;;;;;;;;;;;;16.30;81.73;100071.55;126863;1088;102939;-80
2021/08/11 00:38:38;;;;;;;;;;;;;;;16.32;81.46;100065.25;126908;1089;103324;-80
2021/08/11 00:41:29;;;;;;;;;;;;;;;16.38;81.59;100063.22;126916;1090;102681;-80
2021/08/11 00:44:18;;;;;;;;;;;;;;;16.48;81.80;100074.88;126943;1087;102804;-80
2021/08/11 00:47:06;;;;;;;;;;;;;;;16.49;81.26;100064.25;126795;1087;102901;-80
2021/08/11 00:49:55;;;;;;;;;;;;;;;16.54;81.38;100064.01;126981;1090;102679;-80
2021/08/11 00:52:42;;;;;;;;;;;;;;;16.58;81.05;100061.09;126912;1087;102894;-80
2021/08/11 00:55:34;;;;;;;;;;;;;;;16.61;81.01;100060.91;126934;1087;102919;-80
2021/08/11 00:58:22;;;;;;;;;;;;;;;16.67;81.13;100059.71;126833;1089;102863;-80
2021/08/11 01:01:10;;;;;;;;;;;;;;;16.69;80.88;100057.83;126929;1087;103022;-80
2021/08/11 01:04:02;;;;;;;;;;;;;;;16.70;80.86;100059.55;126762;1088;103074;-80
2021/08/11 01:06:50;;;;;;;;;;;;;;;16.71;80.94;100061.24;126954;1090;102868;-80
2021/08/11 01:09:38;;;;;;;;;;;;;;;16.72;80.74;100062.94;126880;1089;102897;-80
2021/08/11 01:12:27;;;;;;;;;;;;;;;16.72;80.76;100062.09;126824;1090;102892;-80
2021/08/11 01:15:17;;;;;;;;;;;;;;;16.75;80.70;100069.80;126875;1089;103832;-80
2021/08/11 01:18:06;;;;;;;;;;;;;;;16.74;80.27;100068.95;126912;1087;103023;-80
2021/08/11 01:20:57;;;;;;;;;;;;;;;16.73;80.38;100054.09;126874;1090;102819;-80
2021/08/11 01:23:47;;;;;;;;;;;;;;;16.75;80.41;100051.36;126834;1087;103350;-80
2021/08/11 01:26:36;;;;;;;;;;;;;;;16.79;80.54;100058.13;126913;1089;102879;-80
2021/08/11 01:29:30;;;;;;;;;;;;;;;16.80;80.39;100060.67;126870;1090;102923;-80
2021/08/11 01:32:36;;;;;;;;;;;;;;;16.79;80.29;100043.17;126951;1089;102685;-80
2021/08/11 01:35:28;;;;;;;;;;;;;;;16.84;79.80;100037.62;126850;1090;102894;-80
2021/08/11 01:38:19;;;;;;;;;;;;;;;16.82;79.80;100047.41;126963;1089;102990;-80
2021/08/11 01:41:12;;;;;;;;;;;;;;;16.83;79.83;100057.84;126847;1089;101604;-80
2021/08/11 01:44:04;;;;;;;;;;;;;;;16.82;79.93;100064.05;126984;1089;102924;-80
2021/08/11 01:46:54;;;;;;;;;;;;;;;16.86;79.97;100065.55;126774;1088;102962;-80
2021/08/11 01:49:45;;;;;;;;;;;;;;;16.86;79.72;100065.55;126968;1090;102872;-80
2021/08/11 01:52:39;;;;;;;;;;;;;;;16.84;79.58;100064.80;126840;1088;102871;-80
2021/08/11 01:55:29;;;;;;;;;;;;;;;16.86;79.58;100062.92;126957;1087;102866;-80
2021/08/11 01:58:26;;;;;;;;;;;;;;;16.90;79.91;100060.97;126944;1090;102943;-80
2021/08/11 02:01:13;;;;;;;;;;;;;;;16.90;79.55;100067.09;126849;1090;102849;-80
2021/08/11 02:04:05;;;;;;;;;;;;;;;16.95;79.67;100058.05;126732;1087;102850;-80
2021/08/11 02:06:54;;;;;;;;;;;;;;;16.98;79.56;100052.58;126939;1087;102920;-80
2021/08/11 02:09:42;;;;;;;;;;;;;;;17.01;79.21;100055.88;126861;1087;102862;-80
2021/08/11 02:12:29;;;;;;;;;;;;;;;16.96;78.95;100051.84;126888;1089;102852;-80
2021/08/11 02:15:18;;;;;;;;;;;;;;;16.88;78.75;100053.16;126879;1089;102647;-80
2021/08/11 02:18:16;;;;;;;;;;;;;;;16.84;78.84;100062.17;126883;1087;102764;-80
2021/08/11 02:21:12;;;;;;;;;;;;;;;16.83;78.79;100065.75;126940;1087;102902;-80
2021/08/11 02:24:02;;;;;;;;;;;;;;;16.79;78.63;100072.15;126803;1087;102878;-80
2021/08/11 02:26:53;;;;;;;;;;;;;;;16.74;78.82;100063.69;126889;1089;103156;-80
2021/08/11 02:30:02;;;;;;;;;;;;;;;16.76;78.98;100064.44;126840;1090;103105;-80
2021/08/11 02:33:05;;;;;;;;;;;;;;;16.77;78.67;100071.40;126966;1086;102997;-80
2021/08/11 02:36:00;;;;;;;;;;;;;;;16.73;78.37;100069.89;126778;1089;102895;-80
2021/08/11 02:38:52;;;;;;;;;;;;;;;16.72;78.41;100070.84;126934;1089;102925;-80
2021/08/11 02:42:06;;;;;;;;;;;;;;;16.75;78.43;100073.28;126812;1089;105102;-80
2021/08/11 02:44:56;;;;;;;;;;;;;;;16.72;78.24;100073.47;126884;1088;103036;-80
2021/08/11 02:47:47;;;;;;;;;;;;;;;16.71;78.51;100077.05;126815;1090;103055;-80
2021/08/11 02:50:35;;;;;;;;;;;;;;;16.66;78.41;100089.59;126994;1088;102981;-80
2021/08/11 02:53:25;;;;;;;;;;;;;;;16.63;78.58;100076.61;126714;1089;102991;-80
2021/08/11 02:56:14;;;;;;;;;;;;;;;16.68;78.73;100077.20;126999;1087;103060;-80
2021/08/11 02:59:02;;;;;;;;;;;;;;;16.73;78.37;100074.31;126818;1090;102911;-80
2021/08/11 03:01:51;;;;;;;;;;;;;;;16.69;78.34;100073.63;126888;1089;102899;-81
2021/08/11 03:04:39;;;;;;;;;;;;;;;16.63;78.15;100084.50;126838;1090;102949;-80
2021/08/11 03:07:33;;;;;;;;;;;;;;;16.59;78.07;100083.84;126927;1087;102969;-80
2021/08/11 03:10:22;;;;;;;;;;;;;;;16.51;77.85;100093.13;126826;1088;102886;-80
2021/08/11 03:13:12;;;;;;;;;;;;;;;16.45;78.04;100091.70;126955;1087;102865;-80
2021/08/11 03:16:01;;;;;;;;;;;;;;;16.43;77.99;100093.58;126942;1088;103450;-80
2021/08/11 03:18:49;;;;;;;;;;;;;;;16.40;77.95;100085.88;126954;1087;103313;-80
2021/08/11 03:21:39;;;;;;;;;;;;;;;16.37;77.97;100082.58;126928;1087;102937;-80
2021/08/11 03:24:33;;;;;;;;;;;;;;;16.33;78.01;100077.47;126850;1088;102847;-79
2021/08/11 03:27:20;;;;;;;;;;;;;;;16.30;77.92;100076.81;126933;1087;102953;-79
2021/08/11 03:30:10;;;;;;;;;;;;;;;16.24;78.19;100085.91;126851;1087;102893;-79
2021/08/11 03:33:05;;;;;;;;;;;;;;;16.24;78.23;100096.44;126926;1088;102679;-80
2021/08/11 03:35:53;;;;;;;;;;;;;;;16.28;78.38;100102.37;126855;1088;101333;-80
2021/08/11 03:38:41;;;;;;;;;;;;;;;16.32;78.35;100107.36;126939;1087;103003;-80
2021/08/11 03:41:31;;;;;;;;;;;;;;;16.28;78.30;100099.73;126648;1089;103348;-80
2021/08/11 03:44:19;;;;;;;;;;;;;;;16.25;78.39;100094.66;126956;1088;102937;-81
2021/08/11 03:47:08;;;;;;;;;;;;;;;16.23;78.55;100096.53;126846;1088;101663;-80
2021/08/11 03:49:56;;;;;;;;;;;;;;;16.24;78.63;100091.18;126912;1090;102970;-80
2021/08/11 03:52:44;;;;;;;;;;;;;;;16.31;78.88;100095.14;126876;1087;102962;-80
2021/08/11 03:55:33;;;;;;;;;;;;;;;16.34;78.56;100099.41;126870;1090;102854;-80
2021/08/11 03:58:22;;;;;;;;;;;;;;;16.33;78.47;100101.16;126765;1089;102894;-80
2021/08/11 04:01:11;;;;;;;;;;;;;;;16.33;78.23;100100.31;126854;1090;103004;-80
2021/08/11 04:03:59;;;;;;;;;;;;;;;16.29;78.70;100102.28;126885;1090;103959;-80
2021/08/11 04:06:47;;;;;;;;;;;;;;;16.30;78.69;100096.08;126816;1088;102868;-80
2021/08/11 04:09:34;;;;;;;;;;;;;;;16.30;78.42;100080.28;126837;1087;102888;-80
2021/08/11 04:12:24;;;;;;;;;;;;;;;16.30;78.39;100071.55;126792;1088;102945;-80
2021/08/11 04:15:12;;;;;;;;;;;;;;;16.32;78.63;100081.04;126877;1088;102973;-80
2021/08/11 04:18:01;;;;;;;;;;;;;;;16.38;78.71;100079.01;126802;1087;102988;-80
2021/08/11 04:20:48;;;;;;;;;;;;;;;16.39;78.81;100070.17;126878;1087;101137;-80
2021/08/11 04:23:35;;;;;;;;;;;;;;;16.35;78.38;100071.30;126726;1087;103169;-80
2021/08/11 04:26:23;;;;;;;;;;;;;;;16.33;78.55;100072.20;126951;1089;103006;-80
2021/08/11 04:29:10;;;;;;;;;;;;;;;16.36;78.64;100065.94;126853;1087;102900;-80
2021/08/11 04:32:00;;;;;;;;;;;;;;;16.38;78.51;100068.48;126876;1088;102974;-80
2021/08/11 04:34:48;;;;;;;;;;;;;;;16.40;78.94;100071.87;126975;1087;103595;-80
2021/08/11 04:37:36;;;;;;;;;;;;;;;16.43;78.79;100076.95;126899;1087;102875;-80
2021/08/11 04:40:24;;;;;;;;;;;;;;;16.46;78.67;100085.50;126901;1087;102916;-80
2021/08/11 04:43:13;;;;;;;;;;;;;;;16.46;78.60;100095.19;126877;1088;102743;-80
2021/08/11 04:46:00;;;;;;;;;;;;;;;16.48;78.47;100096.78;126996;1090;103008;-80
2021/08/11 04:48:51;;;;;;;;;;;;;;;16.48;78.56;100098.57;126902;1087;103493;-80
2021/08/11 04:51:39;;;;;;;;;;;;;;;16.51;78.77;100095.75;126903;1090;102872;-80
2021/08/11 04:54:26;;;;;;;;;;;;;;;16.50;78.51;100099.33;126914;1087;102874;-80
2021/08/11 04:57:16;;;;;;;;;;;;;;;16.51;78.65;100096.59;126936;1087;102939;-80
2021/08/11 05:00:04;;;;;;;;;;;;;;;16.52;78.42;100097.48;126928;1087;101756;-80
2021/08/11 05:02:51;;;;;;;;;;;;;;;16.53;78.52;100094.75;126925;1088;102418;-80
2021/08/11 05:05:42;;;;;;;;;;;;;;;16.59;78.50;100093.53;126786;1089;102867;-80
2021/08/11 05:08:30;;;;;;;;;;;;;;;16.61;78.44;100099.55;126960;1088;102927;-80
2021/08/11 05:11:17;;;;;;;;;;;;;;;16.66;78.59;100112.44;126967;1090;102629;-80
2021/08/11 05:14:04;;;;;;;;;;;;;;;16.65;78.51;100114.22;126918;1087;102881;-80
2021/08/11 05:16:51;;;;;;;;;;;;;;;16.67;78.49;100108.89;126926;1090;104892;-80
2021/08/11 05:19:39;;;;;;;;;;;;;;;16.69;78.25;100114.91;126790;1090;102900;-80
2021/08/11 05:22:26;;;;;;;;;;;;;;;16.66;78.29;100115.06;126891;1089;102976;-80
2021/08/11 05:25:13;;;;;;;;;;;;;;;16.65;78.43;100114.22;126879;1090;102854;-80
2021/08/11 05:28:01;;;;;;;;;;;;;;;16.65;78.11;100111.59;126982;1090;102902;-80
2021/08/11 05:30:48;;;;;;;;;;;;;;;16.70;78.33;100120.13;126879;1087;102984;-79
2021/08/11 05:33:36;;;;;;;;;;;;;;;16.78;78.24;100122.28;126974;1090;102933;-80
2021/08/11 05:36:23;;;;;;;;;;;;;;;16.80;78.11;100123.03;126903;1089;102871;-80
2021/08/11 05:39:10;;;;;;;;;;;;;;;16.87;77.92;100121.72;127020;1090;102860;-80
2021/08/11 05:41:57;;;;;;;;;;;;;;;16.93;77.59;100117.89;126921;1087;102927;-80
2021/08/11 05:44:44;;;;;;;;;;;;;;;16.94;77.68;100125.70;126960;1090;102841;-80
2021/08/11 05:47:32;;;;;;;;;;;;;;;16.95;77.41;100122.12;126971;1090;103333;-80
2021/08/11 05:50:19;;;;;;;;;;;;;;;17.04;77.25;100115.43;126895;1088;102850;-81
2021/08/11 05:53:07;;;;;;;;;;;;;;;17.14;77.31;100127.12;126955;1090;102886;-80
2021/08/11 05:55:54;;;;;;;;;;;;;;;17.46;77.25;100120.71;126968;1087;102933;-80
2021/08/11 05:58:41;;;;;;;;;;;;;;;17.83;76.34;100118.41;126987;1089;101413;-80
2021/08/11 06:01:28;;;;;;;;;;;;;;;17.86;75.60;100120.00;126839;1087;102952;-80
2021/08/11 06:04:19;;;;;;;;;;;;;;;17.75;75.42;100128.59;126946;1087;102692;-80
2021/08/11 06:07:07;;;;;;;;;;;;;;;17.96;75.25;100126.39;126879;1090;102872;-80
2021/08/11 06:09:56;;;;;;;;;;;;;;;18.05;74.49;100115.23;127009;1090;102881;-80
2021/08/11 06:12:47;;;;;;;;;;;;;;;18.05;74.52;100121.35;126950;1090;102973;-80
2021/08/11 06:15:35;;;;;;;;;;;;;;;18.69;75.07;100126.84;126883;1090;102997;-80
2021/08/11 06:18:22;;;;;;;;;;;;;;;19.15;73.21;100129.81;126916;1090;102912;-80
2021/08/11 06:21:10;;;;;;;;;;;;;;;19.29;72.43;100132.34;126998;1088;102860;-80
2021/08/11 06:23:57;;;;;;;;;;;;;;;20.44;72.91;100132.86;127014;1089;102860;-80
2021/08/11 06:26:46;;;;;;;;;;;;;;;22.26;68.33;100126.52;126991;1090;102847;-80
2021/08/11 06:29:33;;;;;;;;;;;;;;;23.37;66.55;100133.02;127016;1090;101701;-80
2021/08/11 06:32:21;;;;;;;;;;;;;;;23.58;63.65;100126.82;126905;1089;102886;-81
2021/08/11 06:35:09;;;;;;;;;;;;;;;23.21;63.43;100130.84;126997;1087;102858;-81
2021/08/11 06:37:57;;;;;;;;;;;;;;;22.85;63.18;100129.52;126888;1089;102879;-81
2021/08/11 06:40:48;;;;;;;;;;;;;;;22.53;63.30;100134.02;126886;1088;102981;-81
2021/08/11 06:43:35;;;;;;;;;;;;;;;22.17;62.58;100127.29;126812;1090;102857;-81
2021/08/11 06:46:23;;;;;;;;;;;;;;;21.89;63.35;100133.96;126890;1090;103792;-81
2021/08/11 06:49:11;;;;;;;;;;;;;;;21.66;62.39;100128.70;126848;1090;102855;-80
2021/08/11 06:51:59;;;;;;;;;;;;;;;21.50;63.23;100143.30;126809;1088;102851;-80
2021/08/11 06:54:46;;;;;;;;;;;;;;;21.65;63.40;100144.75;126882;1090;102889;-80
2021/08/11 06:57:34;;;;;;;;;;;;;;;21.73;63.42;100144.16;126944;1090;103310;-80
2021/08/11 07:00:22;;;;;;;;;;;;;;;21.76;63.26;100143.91;126970;1090;102881;-80
2021/08/11 07:03:10;;;;;;;;;;;;;;;21.92;63.18;100144.36;126830;1090;103632;-80
2021/08/11 07:05:58;;;;;;;;;;;;;;;22.34;62.25;100152.47;127042;1090;102844;-80
2021/08/11 07:08:46;;;;;;;;;;;;;;;23.14;61.49;100150.95;126860;1090;102860;-80
2021/08/11 07:11:33;;;;;;;;;;;;;;;24.55;60.12;100154.46;126912;1090;102851;-81
2021/08/11 07:14:21;;;;;;;;;;;;;;;26.22;58.24;100150.95;126849;1089;103004;-80
2021/08/11 07:17:09;;;;;;;;;;;;;;;27.35;55.54;100150.19;126833;1090;102865;-79
2021/08/11 07:19:56;;;;;;;;;;;;;;;28.77;53.81;100140.34;126821;1090;102850;-81
2021/08/11 07:22:46;;;;;;;;;;;;;;;30.33;50.19;100144.98;127030;1088;102910;-80
2021/08/11 07:25:34;;;;;;;;;;;;;;;30.82;49.10;100150.00;126927;1088;103358;-80
2021/08/11 07:28:26;;;;;;;;;;;;;;;31.99;46.99;100145.67;127018;1090;102939;-80
2021/08/11 07:31:13;;;;;;;;;;;;;;;32.84;44.52;100145.69;126937;1090;102954;-80
2021/08/11 07:34:01;;;;;;;;;;;;;;;33.68;43.99;100142.89;126985;1089;102851;-80
2021/08/11 07:36:49;;;;;;;;;;;;;;;34.73;42.30;100144.20;126941;1090;101868;-81
2021/08/11 07:39:37;;;;;;;;;;;;;;;35.75;40.73;100149.04;127017;1088;102857;-80
2021/08/11 07:42:24;;;;;;;;;;;;;;;36.16;37.33;100145.08;127029;1090;103457;-81
2021/08/11 07:45:13;;;;;;;;;;;;;;;35.80;37.71;100141.07;126943;1090;102900;-81
2021/08/11 07:48:01;;;;;;;;;;;;;;;35.03;37.26;100142.76;127050;1090;102939;-80
2021/08/11 07:50:48;;;;;;;;;;;;;;;33.85;37.49;100146.95;126870;1089;102884;-81
2021/08/11 07:53:36;;;;;;;;;;;;;;;32.77;38.13;100136.67;126949;1087;102895;-81
2021/08/11 07:56:25;;;;;;;;;;;;;;;32.17;39.10;100135.28;126937;1089;102916;-80
2021/08/11 07:59:12;;;;;;;;;;;;;;;31.44;39.87;100138.95;126906;1087;102863;-80
2021/08/11 08:02:00;;;;;;;;;;;;;;;31.32;39.90;100135.88;126924;1087;102998;-80
2021/08/11 08:04:48;;;;;;;;;;;;;;;31.26;40.22;100129.38;126998;1087;102887;-80
2021/08/11 08:07:35;;;;;;;;;;;;;;;31.61;40.00;100129.64;126843;1087;102774;-80
2021/08/11 08:10:23;;;;;;;;;;;;;;;31.26;40.09;100128.55;126982;1087;102985;-80
2021/08/11 08:13:11;;;;;;;;;;;;;;;32.04;40.10;100124.34;127048;1089;102679;-80
2021/08/11 08:15:59;;;;;;;;;;;;;;;32.54;39.07;100127.98;126911;1087;102953;-80
2021/08/11 08:18:46;;;;;;;;;;;;;;;32.16;38.94;100125.52;127037;1088;102242;-80
2021/08/11 08:21:34;;;;;;;;;;;;;;;31.91;39.14;100130.42;126802;1087;102857;-80
2021/08/11 08:24:22;;;;;;;;;;;;;;;32.72;39.38;100128.34;126919;1087;102934;-80
2021/08/11 08:27:10;;;;;;;;;;;;;;;33.80;37.78;100127.77;126821;1087;102888;-80
2021/08/11 08:29:58;;;;;;;;;;;;;;;33.82;36.86;100111.33;126711;1090;102903;-80
2021/08/11 08:32:49;;;;;;;;;;;;;;;33.47;37.11;100115.98;126810;1087;103457;-80
2021/08/11 08:35:40;;;;;;;;;;;;;;;33.64;37.33;100123.54;126793;1090;102863;-80
2021/08/11 08:38:28;;;;;;;;;;;;;;;34.29;36.19;100110.39;126843;1087;102868;-80
2021/08/11 08:41:28;;;;;;;;;;;;;;;34.86;35.68;100105.47;126827;1090;102847;-80
2021/08/11 08:44:16;;;;;;;;;;;;;;;35.64;34.70;100109.84;126758;1090;102852;-81
2021/08/11 08:47:04;;;;;;;;;;;;;;;36.13;33.77;100112.94;126874;1089;102852;-80
2021/08/11 08:49:52;;;;;;;;;;;;;;;36.81;33.54;100104.94;126751;1087;102651;-80
2021/08/11 08:52:40;;;;;;;;;;;;;;;37.36;32.31;100113.98;126994;1090;104114;-80
2021/08/11 08:55:27;;;;;;;;;;;;;;;37.56;32.07;100113.73;126895;1089;102647;-80
2021/08/11 08:58:15;;;;;;;;;;;;;;;37.48;31.06;100111.31;126853;1088;103464;-80
2021/08/11 09:01:03;;;;;;;;;;;;;;;37.55;30.28;100101.20;126962;1087;102852;-80
2021/08/11 09:03:51;;;;;;;;;;;;;;;37.33;30.17;100099.98;126811;1088;101052;-80
2021/08/11 09:06:41;;;;;;;;;;;;;;;37.14;29.69;100104.56;127026;1087;102889;-80
2021/08/11 09:09:36;;;;;;;;;;;;;;;36.46;30.18;100110.85;126812;1089;102959;-80
2021/08/11 09:12:24;;;;;;;;;;;;;;;36.03;30.89;100097.95;127008;1089;103267;-80
2021/08/11 09:15:30;;;;;;;;;;;;;;;36.04;30.80;100096.07;126937;1089;102947;-80
2021/08/11 09:18:19;;;;;;;;;;;;;;;36.23;30.39;100094.27;126933;1088;102847;-80
2021/08/11 09:21:11;;;;;;;;;;;;;;;35.50;30.72;100107.39;126913;1088;102673;-80
2021/08/11 09:23:58;;;;;;;;;;;;;;;35.48;32.01;100109.49;127037;1089;102857;-79
2021/08/11 09:26:46;;;;;;;;;;;;;;;35.56;31.79;100107.38;126890;1089;102870;-79
2021/08/11 09:29:36;;;;;;;;;;;;;;;35.08;30.15;100104.17;126824;1090;103123;-79
2021/08/11 09:32:23;;;;;;;;;;;;;;;34.37;30.63;100099.41;126747;1088;102977;-79
2021/08/11 09:35:10;;;;;;;;;;;;;;;33.94;31.40;100096.20;126908;1090;103328;-79
2021/08/11 09:38:00;;;;;;;;;;;;;;;33.55;31.66;100103.10;126750;1089;102866;-79
2021/08/11 09:40:48;;;;;;;;;;;;;;;32.75;32.47;100104.47;126812;1089;103294;-79
2021/08/11 09:43:38;;;;;;;;;;;;;;;32.76;33.00;100111.53;126802;1087;102900;-79
2021/08/11 09:46:31;;;;;;;;;;;;;;;32.63;33.68;100108.73;126682;1089;102847;-79
2021/08/11 09:49:21;;;;;;;;;;;;;;;33.17;33.22;100115.36;126712;1090;103007;-79
2021/08/11 09:52:09;;;;;;;;;;;;;;;33.21;32.46;100113.92;126873;1088;102909;-79
2021/08/11 09:54:58;;;;;;;;;;;;;;;32.37;32.12;100103.12;126728;1090;103364;-79
2021/08/11 09:57:45;;;;;;;;;;;;;;;31.40;33.17;100105.28;126827;1089;102860;-79
2021/08/11 10:00:39;;;;;;;;;;;;;;;30.88;33.95;100107.04;126698;1088;102868;-78
2021/08/11 10:03:28;;;;;;;;;;;;;;;30.74;34.90;100109.70;126710;1088;102850;-78
2021/08/11 10:06:29;;;;;;;;;;;;;;;30.63;33.71;100109.11;126769;1090;102897;-81
2021/08/11 10:09:18;;;;;;;;;;;;;;;30.00;33.98;100112.09;126775;1090;102908;-79
2021/08/11 10:12:05;;;;;;;;;;;;;;;29.56;34.86;100122.55;126720;1090;102375;-79
2021/08/11 10:14:58;;;;;;;;;;;;;;;29.55;35.02;100118.20;126687;1089;102882;-79
2021/08/11 10:17:49;;;;;;;;;;;;;;;29.77;34.77;100112.03;126867;1089;102892;-79
2021/08/11 10:20:37;;;;;;;;;;;;;;;30.12;34.93;100116.05;126741;1090;102853;-79
2021/08/11 10:23:25;;;;;;;;;;;;;;;30.74;34.96;100109.70;126827;1089;102871;-79
2021/08/11 10:26:13;;;;;;;;;;;;;;;31.11;34.12;100117.73;126773;1089;102987;-79
2021/08/11 10:29:01;;;;;;;;;;;;;;;31.43;33.05;100110.33;126822;1089;102868;-79
2021/08/11 10:31:48;;;;;;;;;;;;;;;31.56;32.50;100113.16;126819;1090;101872;-79
2021/08/11 10:34:37;;;;;;;;;;;;;;;31.25;32.99;100125.02;126769;1089;102923;-79
2021/08/11 10:37:25;;;;;;;;;;;;;;;30.70;33.64;100117.28;126890;1089;102904;-79
2021/08/11 10:40:13;;;;;;;;;;;;;;;30.11;33.81;100119.75;126758;1090;102920;-79
2021/08/11 10:43:00;;;;;;;;;;;;;;;29.82;34.20;100125.80;126694;1089;102917;-79
2021/08/11 10:45:57;;;;;;;;;;;;;;;30.17;34.93;100120.91;126752;1090;102927;-79
2021/08/11 10:49:03;;;;;;;;;;;;;;;30.62;34.79;100138.91;126771;1090;102879;-79
2021/08/11 10:51:51;;;;;;;;;;;;;;;30.52;34.00;100130.20;126718;1090;102858;-78
2021/08/11 10:54:52;;;;;;;;;;;;;;;30.07;34.15;100135.42;126852;1087;102135;-78
2021/08/11 10:57:43;;;;;;;;;;;;;;;29.51;34.83;100139.21;126736;1090;102855;-78
2021/08/11 11:00:36;;;;;;;;;;;;;;;29.16;35.30;100138.62;126925;1089;102846;-79
2021/08/11 11:03:43;;;;;;;;;;;;;;;28.79;35.89;100154.42;126773;1088;102970;-79
2021/08/11 11:06:51;;;;;;;;;;;;;;;28.29;36.50;100144.68;126853;1087;102850;-79
2021/08/11 11:09:41;;;;;;;;;;;;;;;27.85;37.50;100152.11;126772;1088;102965;-79
2021/08/11 11:12:28;;;;;;;;;;;;;;;27.41;37.84;100152.21;126868;1090;102868;-79
2021/08/11 11:15:16;;;;;;;;;;;;;;;27.22;38.09;100157.80;126801;1087;103137;-79
2021/08/11 11:18:19;;;;;;;;;;;;;;;27.27;38.83;100155.48;126917;1090;102950;-79
2021/08/11 11:21:07;;;;;;;;;;;;;;;27.42;38.62;100159.25;126760;1088;102966;-79
2021/08/11 11:23:55;;;;;;;;;;;;;;;27.40;38.41;100162.08;126921;1089;102848;-80
2021/08/11 11:26:42;;;;;;;;;;;;;;;27.43;38.64;100155.56;126844;1089;102733;-80
2021/08/11 11:29:46;;;;;;;;;;;;;;;27.44;38.96;100156.41;126880;1090;102944;-79
2021/08/11 11:32:34;;;;;;;;;;;;;;;27.55;39.05;100151.61;126737;1090;102817;-79
2021/08/11 11:35:23;;;;;;;;;;;;;;;27.78;39.13;100154.58;126822;1090;102857;-79
2021/08/11 11:38:12;;;;;;;;;;;;;;;27.82;38.34;100147.05;126863;1088;102931;-80
2021/08/11 11:41:00;;;;;;;;;;;;;;;27.45;37.68;100150.88;126917;1088;103367;-79
2021/08/11 11:43:57;;;;;;;;;;;;;;;27.43;37.76;100154.73;127041;1087;102884;-80
2021/08/11 11:46:48;;;;;;;;;;;;;;;27.46;37.88;100149.88;126940;1088;102653;-79
2021/08/11 11:49:37;;;;;;;;;;;;;;;27.57;36.71;100157.65;126858;1090;102957;-80
2021/08/11 11:52:26;;;;;;;;;;;;;;;27.66;36.81;100150.53;126761;1087;103052;-78
2021/08/11 11:55:14;;;;;;;;;;;;;;;27.92;37.16;100140.55;126715;1088;103030;-79
2021/08/11 11:58:06;;;;;;;;;;;;;;;28.23;36.91;100145.32;126739;1087;102854;-79
2021/08/11 12:00:59;;;;;;;;;;;;;;;28.60;35.54;100155.61;126812;1090;102865;-79
2021/08/11 12:03:51;;;;;;;;;;;;;;;28.58;35.13;100147.73;126735;1090;100791;-79
2021/08/11 12:06:45;;;;;;;;;;;;;;;28.50;34.08;100160.28;126760;1088;102991;-79
2021/08/11 12:09:50;;;;;;;;;;;;;;;28.31;33.79;100161.44;126744;1090;102828;-79
2021/08/11 12:12:37;;;;;;;;;;;;;;;28.12;34.20;100161.71;126848;1089;102865;-79
2021/08/11 12:15:26;;;;;;;;;;;;;;;27.97;34.33;100166.86;126647;1088;103061;-79
2021/08/11 12:18:16;;;;;;;;;;;;;;;28.01;35.19;100165.56;126823;1089;102969;-79
2021/08/11 12:21:04;;;;;;;;;;;;;;;28.12;35.72;100167.91;126758;1090;102856;-79
2021/08/11 12:23:54;;;;;;;;;;;;;;;28.22;34.90;100171.30;126964;1088;102928;-79
2021/08/11 12:26:42;;;;;;;;;;;;;;;28.22;35.04;100173.98;126766;1089;104325;-79
2021/08/11 12:29:31;;;;;;;;;;;;;;;28.22;34.91;100165.94;126814;1089;102878;-79
2021/08/11 12:32:23;;;;;;;;;;;;;;;28.16;34.25;100163.89;126803;1090;102972;-79
2021/08/11 12:35:12;;;;;;;;;;;;;;;28.06;34.07;100173.94;126811;1090;102937;-79
2021/08/11 12:38:00;;;;;;;;;;;;;;;27.90;34.14;100165.84;126855;1090;103003;-79
2021/08/11 12:40:53;;;;;;;;;;;;;;;27.81;34.63;100175.69;126734;1087;104061;-79
2021/08/11 12:43:41;;;;;;;;;;;;;;;27.67;34.80;100166.45;126843;1090;102860;-79
2021/08/11 12:46:44;;;;;;;;;;;;;;;27.56;34.46;100165.84;126695;1090;102967;-79
2021/08/11 12:49:39;;;;;;;;;;;;;;;27.35;34.34;100163.57;126915;1087;102855;-79
2021/08/11 12:52:27;;;;;;;;;;;;;;;26.92;35.03;100162.58;126710;1090;102865;-80
2021/08/11 12:55:29;;;;;;;;;;;;;;;26.58;35.47;100165.19;126835;1089;102948;-80
2021/08/11 12:58:17;;;;;;;;;;;;;;;26.38;36.08;100171.66;126748;1089;102991;-80
2021/08/11 13:01:04;;;;;;;;;;;;;;;26.23;36.40;100170.50;126838;1088;102996;-79
2021/08/11 13:03:53;;;;;;;;;;;;;;;26.34;37.08;100168.42;126777;1089;102980;-80
2021/08/11 13:06:45;;;;;;;;;;;;;;;26.54;37.03;100161.11;126833;1087;103357;-81
2021/08/11 13:09:33;;;;;;;;;;;;;;;26.54;36.88;100169.14;126798;1090;102682;-79
2021/08/11 13:12:28;;;;;;;;;;;;;;;26.34;36.23;100172.93;126787;1090;102997;-78
2021/08/11 13:15:30;;;;;;;;;;;;;;;26.08;36.75;100167.50;126722;1088;101280;-79
2021/08/11 13:18:24;;;;;;;;;;;;;;;26.01;37.50;100166.40;126854;1087;102820;-80
2021/08/11 13:21:13;;;;;;;;;;;;;;;26.01;37.22;100171.74;126757;1087;102948;-79
2021/08/11 13:24:01;;;;;;;;;;;;;;;26.01;37.77;100163.73;126814;1088;102785;-78
2021/08/11 13:26:49;;;;;;;;;;;;;;;26.01;37.93;100158.38;126843;1087;102931;-79
2021/08/11 13:29:38;;;;;;;;;;;;;;;25.97;37.45;100165.86;126845;1087;103026;-79
2021/08/11 13:32:26;;;;;;;;;;;;;;;25.85;37.31;100151.89;126825;1090;102892;-82
2021/08/11 13:35:28;;;;;;;;;;;;;;;25.76;37.12;100173.30;126758;1089;102267;-79
2021/08/11 13:38:16;;;;;;;;;;;;;;;25.66;37.75;100159.95;126865;1090;102917;-79
2021/08/11 13:41:05;;;;;;;;;;;;;;;25.69;37.69;100161.55;126777;1090;102842;-79
2021/08/11 13:43:53;;;;;;;;;;;;;;;25.66;37.56;100161.78;126755;1088;102920;-79
2021/08/11 13:46:58;;;;;;;;;;;;;;;25.53;37.74;100162.98;126577;1089;102900;-79
2021/08/11 13:49:46;;;;;;;;;;;;;;;25.48;38.22;100165.23;126860;1090;103188;-79
2021/08/11 13:52:34;;;;;;;;;;;;;;;25.45;38.52;100167.36;126764;1089;102847;-79
2021/08/11 13:55:22;;;;;;;;;;;;;;;25.36;38.51;100174.44;126927;1090;102890;-79
2021/08/11 13:58:11;;;;;;;;;;;;;;;25.32;39.14;100172.20;126750;1090;102851;-79
2021/08/11 14:01:00;;;;;;;;;;;;;;;25.30;39.42;100170.49;126988;1087;102944;-79
2021/08/11 14:03:49;;;;;;;;;;;;;;;25.34;38.87;100178.23;126892;1089;102270;-79
2021/08/11 14:06:36;;;;;;;;;;;;;;;25.25;38.60;100163.92;127002;1089;102743;-79
2021/08/11 14:09:25;;;;;;;;;;;;;;;25.25;38.82;100164.76;126970;1090;102943;-79
2021/08/11 14:12:14;;;;;;;;;;;;;;;25.22;38.99;100165.05;127005;1088;102880;-79